createdAt,value
2023-06-10T00:00:08.357Z,3.05
2023-06-10T00:02:44.812Z,3.15
2023-06-10T00:05:12.555Z,3.33
2023-06-10T00:07:41.655Z,2.75
2023-06-10T00:10:11.115Z,3.10
2023-06-10T00:12:39.097Z,3.30
2023-06-10T00:15:08.385Z,3.27
2023-06-10T00:17:38.542Z,3.27
2023-06-10T00:20:11.087Z,3.17
2023-06-10T00:22:40.018Z,3.30
2023-06-10T00:25:09.842Z,3.62
2023-06-10T00:27:37.924Z,3.12
2023-06-10T00:30:07.499Z,3.22
2023-06-10T00:32:36.398Z,3.20
2023-06-10T00:35:05.538Z,3.10
2023-06-10T00:37:36.001Z,3.27
2023-06-10T00:40:05.742Z,3.30
2023-06-10T00:42:33.841Z,3.50
2023-06-10T00:45:01.645Z,3.90
2023-06-10T00:47:31.733Z,4.17
2023-06-10T00:49:59.934Z,4.85
2023-06-10T00:52:30.988Z,4.15
2023-06-10T00:55:00.157Z,3.60
2023-06-10T01:00:16.913Z,3.45
2023-06-10T01:06:30.931Z,3.35
2023-06-10T01:09:45.194Z,3.70
2023-06-10T01:12:33.380Z,3.40
2023-06-10T01:15:02.948Z,3.25
2023-06-10T01:17:31.098Z,3.37
2023-06-10T01:19:59.298Z,3.67
2023-06-10T01:22:30.196Z,3.15
2023-06-10T01:25:01.109Z,3.85
2023-06-10T01:27:34.288Z,2.87
2023-06-10T01:30:06.908Z,4.05
2023-06-10T01:32:45.521Z,3.22
2023-06-10T01:35:13.459Z,3.12
2023-06-10T01:37:46.137Z,3.50
2023-06-10T01:40:15.326Z,3.58
2023-06-10T01:42:43.085Z,3.08
2023-06-10T01:45:11.268Z,2.83
2023-06-10T01:47:39.073Z,3.30
2023-06-10T01:50:08.113Z,3.50
2023-06-10T01:52:37.894Z,3.92
2023-06-10T01:55:06.870Z,3.95
2023-06-10T01:57:34.950Z,4.03
2023-06-10T02:00:03.886Z,3.58
2023-06-10T02:02:33.473Z,3.92
2023-06-10T02:05:01.475Z,3.70
2023-06-10T02:07:29.056Z,3.20
2023-06-10T02:09:56.486Z,3.08
2023-06-10T02:12:24.025Z,3.83
2023-06-10T02:14:51.641Z,3.30
2023-06-10T02:17:19.923Z,3.70
2023-06-10T02:19:49.248Z,3.70
2023-06-10T02:22:16.668Z,3.40
2023-06-10T02:24:44.023Z,3.47
2023-06-10T02:27:11.635Z,3.30
2023-06-10T02:29:39.185Z,3.30
2023-06-10T02:32:10.478Z,3.98
2023-06-10T02:34:37.515Z,3.70
2023-06-10T02:37:05.841Z,3.77
2023-06-10T02:39:33.239Z,4.55
2023-06-10T02:42:01.754Z,3.80
2023-06-10T02:44:29.072Z,3.35
2023-06-10T02:46:56.706Z,3.80
2023-06-10T02:49:24.555Z,3.70
2023-06-10T02:51:53.971Z,3.87
2023-06-10T02:54:22.992Z,3.55
2023-06-10T02:56:52.945Z,3.52
2023-06-10T02:59:23.078Z,3.77
2023-06-10T03:01:51.229Z,3.98
2023-06-10T03:04:19.180Z,4.00
2023-06-10T03:06:48.583Z,3.92
2023-06-10T03:09:17.975Z,3.90
2023-06-10T03:11:46.750Z,3.95
2023-06-10T03:14:14.520Z,4.45
2023-06-10T03:16:43.215Z,3.70
2023-06-10T03:19:11.242Z,4.28
2023-06-10T03:21:39.997Z,4.20
2023-06-10T03:24:14.071Z,3.98
2023-06-10T03:26:41.554Z,3.75
2023-06-10T03:29:09.154Z,4.00
2023-06-10T03:31:37.268Z,3.45
2023-06-10T03:34:07.607Z,4.15
2023-06-10T03:36:37.505Z,3.83
2023-06-10T03:39:05.603Z,3.77
2023-06-10T03:41:34.314Z,3.72
2023-06-10T03:44:04.339Z,3.87
2023-06-10T03:46:31.690Z,3.87
2023-06-10T03:49:01.191Z,3.85
2023-06-10T03:51:30.637Z,4.10
2023-06-10T03:53:58.565Z,4.25
2023-06-10T03:56:26.514Z,4.45
2023-06-10T03:58:54.397Z,4.22
2023-06-10T04:01:23.943Z,4.30
2023-06-10T04:03:53.414Z,3.80
2023-06-10T04:06:23.051Z,4.10
2023-06-10T04:08:50.761Z,4.92
2023-06-10T04:11:18.839Z,4.30
2023-06-10T04:13:46.702Z,4.72
2023-06-10T04:16:14.169Z,4.25
2023-06-10T04:18:42.500Z,3.83
2023-06-10T04:21:11.716Z,3.75
2023-06-10T04:23:39.701Z,4.00
2023-06-10T04:26:08.671Z,3.85
2023-06-10T04:28:36.823Z,4.05
2023-06-10T04:31:04.758Z,3.55
2023-06-10T04:33:33.052Z,3.95
2023-06-10T04:36:02.328Z,3.77
2023-06-10T04:38:31.494Z,4.15
2023-06-10T04:40:59.642Z,4.00
2023-06-10T04:43:28.973Z,5.40
2023-06-10T04:45:57.340Z,4.75
2023-06-10T04:48:25.377Z,5.33
2023-06-10T04:50:54.469Z,4.90
2023-06-10T04:53:23.809Z,4.45
2023-06-10T04:55:51.387Z,4.08
2023-06-10T04:58:19.156Z,4.12
2023-06-10T05:00:47.032Z,4.17
2023-06-10T05:03:25.220Z,4.42
2023-06-10T05:05:57.172Z,4.42
2023-06-10T05:08:29.897Z,5.28
2023-06-10T05:11:00.435Z,4.87
2023-06-10T05:13:28.832Z,5.08
2023-06-10T05:15:58.099Z,4.22
2023-06-10T05:18:25.875Z,4.28
2023-06-10T05:20:57.062Z,4.22
2023-06-10T05:23:24.664Z,3.87
2023-06-10T05:25:52.209Z,4.58
2023-06-10T05:28:20.229Z,4.37
2023-06-10T05:30:48.357Z,3.75
2023-06-10T05:33:16.265Z,4.00
2023-06-10T05:35:43.919Z,3.90
2023-06-10T05:38:11.801Z,3.30
2023-06-10T05:40:39.454Z,3.30
2023-06-10T05:43:06.934Z,3.85
2023-06-10T05:45:34.602Z,4.15
2023-06-10T05:48:02.351Z,4.22
2023-06-10T05:50:30.253Z,3.52
2023-06-10T05:52:58.843Z,3.33
2023-06-10T05:55:26.871Z,3.30
2023-06-10T05:58:01.244Z,3.83
2023-06-10T06:00:29.014Z,3.42
2023-06-10T06:02:57.840Z,3.90
2023-06-10T06:05:26.009Z,3.20
2023-06-10T06:07:55.705Z,3.37
2023-06-10T06:10:24.058Z,3.22
2023-06-10T06:12:55.293Z,3.10
2023-06-10T06:15:22.992Z,3.75
2023-06-10T06:17:52.457Z,4.25
2023-06-10T06:20:23.905Z,3.35
2023-06-10T06:22:51.606Z,4.80
2023-06-10T06:25:20.928Z,3.80
2023-06-10T06:27:48.870Z,3.75
2023-06-10T06:30:16.685Z,3.27
2023-06-10T06:32:44.630Z,4.95
2023-06-10T06:35:12.440Z,5.17
2023-06-10T06:37:40.085Z,3.83
2023-06-10T06:40:10.614Z,4.28
2023-06-10T06:42:38.394Z,4.47
2023-06-10T06:45:08.999Z,3.70
2023-06-10T06:47:37.722Z,3.80
2023-06-10T06:50:06.267Z,4.45
2023-06-10T06:52:34.062Z,5.70
2023-06-10T06:55:01.910Z,4.08
2023-06-10T06:57:29.719Z,3.98
2023-06-10T06:59:57.322Z,3.55
2023-06-10T07:02:25.180Z,3.70
2023-06-10T07:04:54.910Z,3.70
2023-06-10T07:07:23.208Z,3.42
2023-06-10T07:09:51.311Z,3.90
2023-06-10T07:12:19.227Z,3.85
2023-06-10T07:14:46.977Z,3.50
2023-06-10T07:17:14.947Z,3.50
2023-06-10T07:19:42.837Z,4.10
2023-06-10T07:22:10.698Z,3.90
2023-06-10T07:24:38.575Z,3.87
2023-06-10T07:27:07.689Z,3.27
2023-06-10T07:29:36.366Z,3.75
2023-06-10T07:32:05.665Z,3.80
2023-06-10T07:34:33.296Z,4.20
2023-06-10T07:37:01.098Z,3.58
2023-06-10T07:39:28.510Z,3.90
2023-06-10T07:41:57.674Z,3.90
2023-06-10T07:44:27.067Z,3.60
2023-06-10T07:46:54.917Z,3.42
2023-06-10T07:49:22.542Z,3.95
2023-06-10T07:51:51.846Z,4.50
2023-06-10T07:54:19.646Z,4.10
2023-06-10T07:56:52.350Z,4.67
2023-06-10T07:59:21.786Z,3.40
2023-06-10T08:01:50.271Z,3.80
2023-06-10T08:04:21.906Z,3.80
2023-06-10T08:06:50.921Z,3.47
2023-06-10T08:09:19.014Z,3.52
2023-06-10T08:11:50.409Z,3.58
2023-06-10T08:14:19.817Z,3.65
2023-06-10T08:16:47.595Z,3.80
2023-06-10T08:19:15.549Z,3.95
2023-06-10T08:21:44.090Z,3.52
2023-06-10T08:24:11.957Z,3.30
2023-06-10T08:26:40.633Z,3.22
2023-06-10T08:29:08.309Z,3.80
2023-06-10T08:31:36.298Z,4.00
2023-06-10T08:34:03.768Z,3.70
2023-06-10T08:36:31.393Z,3.35
2023-06-10T08:38:59.124Z,3.75
2023-06-10T08:41:29.940Z,3.58
2023-06-10T08:44:15.056Z,3.05
2023-06-10T08:49:17.484Z,3.55
2023-06-10T08:51:48.781Z,3.33
2023-06-10T08:54:23.050Z,3.67
2023-06-10T08:56:52.535Z,3.22
2023-06-10T08:59:21.551Z,3.42
2023-06-10T09:01:50.989Z,3.45
2023-06-10T09:04:20.543Z,3.33
2023-06-10T09:06:50.335Z,3.42
2023-06-10T09:09:20.817Z,3.62
2023-06-10T09:11:49.129Z,3.50
2023-06-10T09:14:17.222Z,3.15
2023-06-10T09:16:47.324Z,3.58
2023-06-10T09:19:17.383Z,3.67
2023-06-10T09:21:45.268Z,3.15
2023-06-10T09:24:13.316Z,3.35
2023-06-10T09:26:41.324Z,3.35
2023-06-10T09:29:12.311Z,3.65
2023-06-10T09:31:43.104Z,3.47
2023-06-10T09:34:13.694Z,3.58
2023-06-10T09:36:42.258Z,3.60
2023-06-10T09:39:18.181Z,3.30
2023-06-10T09:41:47.411Z,3.15
2023-06-10T09:44:21.140Z,3.52
2023-06-10T09:46:51.544Z,3.50
2023-06-10T09:49:19.483Z,3.52
2023-06-10T09:51:55.769Z,3.42
2023-06-10T09:54:24.011Z,3.20
2023-06-10T09:56:53.397Z,3.80
2023-06-10T09:59:31.791Z,3.50
2023-06-10T10:02:00.919Z,3.80
2023-06-10T10:04:29.197Z,3.60
2023-06-10T10:06:57.123Z,3.52
2023-06-10T10:09:33.687Z,3.27
2023-06-10T10:12:04.288Z,3.70
2023-06-10T10:14:33.762Z,3.60
2023-06-10T10:17:05.513Z,3.22
2023-06-10T10:19:39.675Z,3.52
2023-06-10T10:22:18.064Z,3.73
2023-06-10T10:24:56.699Z,4.10
2023-06-10T10:27:48.556Z,4.85
2023-06-10T10:30:19.077Z,3.85
2023-06-10T10:33:12.878Z,4.03
2023-06-10T10:35:41.272Z,3.95
2023-06-10T10:38:11.391Z,3.83
2023-06-10T10:40:40.565Z,4.47
2023-06-10T10:43:11.587Z,4.55
2023-06-10T10:45:39.284Z,4.28
2023-06-10T10:48:13.025Z,4.00
2023-06-10T10:50:41.190Z,3.37
2023-06-10T10:53:11.088Z,3.55
2023-06-10T10:55:38.952Z,3.30
2023-06-10T10:58:10.197Z,3.70
2023-06-10T11:00:41.017Z,3.00
2023-06-10T11:03:11.868Z,3.02
2023-06-10T11:05:49.005Z,2.90
2023-06-10T11:08:37.352Z,2.72
2023-06-10T11:11:28.373Z,3.65
2023-06-10T11:14:09.025Z,2.85
2023-06-10T11:16:43.762Z,3.55
2023-06-10T11:19:34.256Z,3.12
2023-06-10T11:22:07.608Z,3.27
2023-06-10T11:24:37.080Z,2.80
2023-06-10T11:27:28.833Z,3.40
2023-06-10T11:30:08.300Z,2.70
2023-06-10T11:32:36.544Z,3.00
2023-06-10T11:35:06.420Z,2.90
2023-06-10T11:37:34.148Z,3.12
2023-06-10T11:40:03.454Z,2.70
2023-06-10T11:42:31.161Z,3.05
2023-06-10T11:44:59.163Z,2.87
2023-06-10T11:47:27.537Z,3.20
2023-06-10T11:49:58.515Z,2.95
2023-06-10T11:52:34.232Z,4.95
2023-06-10T11:55:02.276Z,4.30
2023-06-10T11:57:30.136Z,4.17
2023-06-10T11:59:58.284Z,4.50
2023-06-10T12:02:26.499Z,5.10
2023-06-10T12:04:54.432Z,5.00
2023-06-10T12:07:24.241Z,4.37
2023-06-10T12:10:12.084Z,5.03
2023-06-10T12:12:31.287Z,3.90
2023-06-10T12:15:01.496Z,5.25
2023-06-10T12:17:39.980Z,3.75
2023-06-10T12:20:12.550Z,4.55
2023-06-10T12:22:43.130Z,3.90
2023-06-10T12:25:12.855Z,4.72
2023-06-10T12:27:53.841Z,4.58
2023-06-10T12:30:25.150Z,5.05
2023-06-10T12:32:54.033Z,6.37
2023-06-10T12:35:26.982Z,3.70
2023-06-10T12:38:01.656Z,5.00
2023-06-10T12:40:41.088Z,4.75
2023-06-10T12:43:09.292Z,4.47
2023-06-10T12:45:45.995Z,4.67
2023-06-10T12:48:27.867Z,5.00
2023-06-10T12:50:58.811Z,5.03
2023-06-10T12:53:30.276Z,4.67
2023-06-10T12:55:58.610Z,4.78
2023-06-10T12:58:27.396Z,4.80
2023-06-10T13:00:55.454Z,5.47
2023-06-10T13:03:23.258Z,5.22
2023-06-10T13:05:51.468Z,5.53
2023-06-10T13:08:19.518Z,5.62
2023-06-10T13:10:49.253Z,5.15
2023-06-10T13:13:18.410Z,4.47
2023-06-10T13:15:46.602Z,5.50
2023-06-10T13:18:14.754Z,5.70
2023-06-10T13:20:42.848Z,5.28
2023-06-10T13:23:10.764Z,5.10
2023-06-10T13:25:40.906Z,5.37
2023-06-10T13:28:08.571Z,4.90
2023-06-10T13:30:36.610Z,4.78
2023-06-10T13:33:04.591Z,4.80
2023-06-10T13:35:32.354Z,4.15
2023-06-10T13:38:00.729Z,4.72
2023-06-10T13:40:28.625Z,4.80
2023-06-10T13:42:57.035Z,4.90
2023-06-10T13:45:25.560Z,4.83
2023-06-10T13:47:53.545Z,5.00
2023-06-10T13:50:21.625Z,4.72
2023-06-10T13:52:51.828Z,4.62
2023-06-10T13:55:20.732Z,4.60
2023-06-10T13:57:48.706Z,4.87
2023-06-10T14:00:17.210Z,4.62
2023-06-10T14:02:45.491Z,4.72
2023-06-10T14:05:13.774Z,5.00
2023-06-10T14:07:41.481Z,5.00
2023-06-10T14:10:10.467Z,4.87
2023-06-10T14:12:39.601Z,5.65
2023-06-10T18:17:37.634Z,3.77
2023-06-10T18:20:07.583Z,3.77
2023-06-10T18:22:35.316Z,3.83
2023-06-10T18:25:06.217Z,4.08
2023-06-10T18:27:35.120Z,4.37
2023-06-10T18:30:04.600Z,5.67
2023-06-10T18:32:32.713Z,6.03
2023-06-10T18:35:00.489Z,6.33
2023-06-10T18:37:30.953Z,4.67
2023-06-10T18:39:59.856Z,6.80
2023-06-10T18:42:27.891Z,6.15
2023-06-10T18:44:55.474Z,4.50
2023-06-10T18:47:23.226Z,5.62
2023-06-10T18:49:50.595Z,4.95
2023-06-10T18:52:18.213Z,5.05
2023-06-10T18:54:46.850Z,5.60
2023-06-10T18:57:15.017Z,6.03
2023-06-10T18:59:43.547Z,5.50
2023-06-10T19:02:11.253Z,5.85
2023-06-10T19:04:38.791Z,6.03
2023-06-10T19:07:06.537Z,6.78
2023-06-10T19:09:33.881Z,6.78
2023-06-10T19:12:01.757Z,6.78
2023-06-10T19:14:29.414Z,6.25
2023-06-10T19:16:57.556Z,5.83
2023-06-10T19:19:24.900Z,5.78
2023-06-10T19:21:52.644Z,6.40
2023-06-10T19:24:23.231Z,6.33
2023-06-10T19:26:50.991Z,5.65
2023-06-10T19:29:18.905Z,5.20
2023-06-10T19:31:46.704Z,5.30
2023-06-10T19:34:19.629Z,5.58
2023-06-10T19:36:47.361Z,4.58
2023-06-10T19:39:15.054Z,6.37
2023-06-10T19:41:43.166Z,4.33
2023-06-10T19:44:12.548Z,5.15
2023-06-10T19:46:40.629Z,5.28
2023-06-10T19:49:08.310Z,5.15
2023-06-10T19:51:36.653Z,5.47
2023-06-10T19:54:04.732Z,4.83
2023-06-10T19:56:32.658Z,5.53
2023-06-10T19:59:00.637Z,5.00
2023-06-10T20:01:28.879Z,4.87
2023-06-10T20:03:56.677Z,5.17
2023-06-10T20:06:24.486Z,5.17
2023-06-10T20:08:52.254Z,5.65
2023-06-10T20:11:22.111Z,4.80
2023-06-10T20:13:49.725Z,4.60
2023-06-10T20:16:22.661Z,5.20
2023-06-10T20:18:52.756Z,5.20
2023-06-10T20:21:20.738Z,5.00
2023-06-10T20:23:48.373Z,5.20
2023-06-10T20:26:17.162Z,5.45
2023-06-10T20:28:45.434Z,5.60
2023-06-10T20:31:13.280Z,5.70
2023-06-10T20:33:41.036Z,5.10
2023-06-10T20:36:08.746Z,5.55
2023-06-10T20:38:36.469Z,4.75
2023-06-10T20:41:04.137Z,5.95
2023-06-10T20:43:31.664Z,5.65
2023-06-10T20:45:59.440Z,5.75
2023-06-10T20:48:27.227Z,5.42
2023-06-10T20:50:56.332Z,5.47
2023-06-10T20:53:24.509Z,5.65
2023-06-10T20:55:52.123Z,5.33
2023-06-10T20:58:20.024Z,5.62
2023-06-10T21:00:48.039Z,5.42
2023-06-10T21:03:16.582Z,5.92
2023-06-10T21:05:44.304Z,5.80
2023-06-10T21:08:11.987Z,5.03
2023-06-10T21:10:39.887Z,5.28
2023-06-10T21:13:07.598Z,5.12
2023-06-10T21:15:35.327Z,5.22
2023-06-10T21:18:03.299Z,5.28
2023-06-10T21:20:31.069Z,4.60
2023-06-10T21:22:58.901Z,4.95
2023-06-10T21:25:26.781Z,5.20
2023-06-10T21:27:54.667Z,4.45
2023-06-10T21:30:22.852Z,4.47
2023-06-10T21:32:50.414Z,5.12
2023-06-10T21:35:18.375Z,4.70
2023-06-10T21:37:46.659Z,4.50
2023-06-10T21:40:15.210Z,4.97
2023-06-10T21:42:43.100Z,5.17
2023-06-10T21:45:12.315Z,4.55
2023-06-10T21:47:40.595Z,4.78
2023-06-10T21:50:09.203Z,4.17
2023-06-10T21:52:37.243Z,4.83
2023-06-10T21:55:05.792Z,4.40
2023-06-10T21:57:33.681Z,4.75
2023-06-10T22:00:03.453Z,4.42
2023-06-10T22:02:32.515Z,5.08
2023-06-10T22:05:00.371Z,4.53
2023-06-10T22:07:29.277Z,4.15
2023-06-10T22:09:57.286Z,4.28
2023-06-10T22:12:25.231Z,4.67
2023-06-10T22:14:53.079Z,4.45
2023-06-10T22:17:20.889Z,4.60
2023-06-10T22:19:48.761Z,4.70
2023-06-10T22:22:16.728Z,4.20
2023-06-10T22:24:46.250Z,4.20
2023-06-10T22:27:14.293Z,4.55
2023-06-10T22:29:41.887Z,4.70
2023-06-10T22:32:11.669Z,4.47
2023-06-10T22:34:41.306Z,4.17
2023-06-10T22:37:09.320Z,4.55
2023-06-10T22:39:39.080Z,4.30
2023-06-10T22:42:09.461Z,4.30
2023-06-10T22:44:37.748Z,4.37
2023-06-10T22:47:06.761Z,4.35
2023-06-10T22:49:34.702Z,4.35
2023-06-10T22:52:02.731Z,4.72
2023-06-10T22:54:31.125Z,4.47
2023-06-10T22:57:00.137Z,4.50
2023-06-10T22:59:28.029Z,5.17
2023-06-10T23:01:55.805Z,4.95
2023-06-10T23:04:23.595Z,4.70
2023-06-10T23:06:51.403Z,4.78
2023-06-10T23:09:19.259Z,4.60
2023-06-10T23:11:48.741Z,4.40
2023-06-10T23:14:16.461Z,4.92
2023-06-10T23:16:47.546Z,4.78
2023-06-10T23:19:17.678Z,4.75
2023-06-10T23:21:48.445Z,5.40
2023-06-10T23:24:17.642Z,4.80
2023-06-10T23:26:45.422Z,4.75
2023-06-10T23:29:13.223Z,4.70
2023-06-10T23:31:41.058Z,4.72
2023-06-10T23:34:09.033Z,4.92
2023-06-10T23:36:38.704Z,4.50
2023-06-10T23:39:10.778Z,4.80
2023-06-10T23:41:39.603Z,4.85
2023-06-10T23:44:07.721Z,4.45
2023-06-10T23:46:37.875Z,5.67
2023-06-10T23:49:09.435Z,4.67
2023-06-10T23:51:37.578Z,4.53
2023-06-10T23:54:06.628Z,5.08
2023-06-10T23:56:34.658Z,4.70
2023-06-10T23:59:02.289Z,4.97
